Terminal Aerodrome Forecast
Issued by NWS Wilmington, OH

Current Version | Previous Version | Graphics & Text | Print | Product List | Glossary On
Versions: 1 2 3 4 5 6 7 8 9 10 11 12 13 14 15 16
000
FTUS41 KILN 250858 AAB
TAFDAY
TAF AMD
KDAY 250858Z 2509/2606 21008KT P6SM VCSH SCT030 OVC150
     FM251600 26010KT P6SM VCTS SCT040CB
     FM252000 29007KT P6SM VCTS SCT040CB SCT100
     FM260100 28005KT P6SM SCT250=

USA.gov is the U.S. government's official web portal to all federal, state and local government web resources and services.